createdAt,value
2019-04-06T00:00:07.502Z,92.30
2019-04-06T00:02:37.736Z,92.30
2019-04-06T00:05:07.862Z,92.30
2019-04-06T00:07:36.540Z,92.30
2019-04-06T00:10:08.525Z,92.30
2019-04-06T00:12:38.153Z,92.30
2019-04-06T00:15:07.628Z,92.30
2019-04-06T00:17:36.172Z,92.30
2019-04-06T00:20:06.413Z,92.30
2019-04-06T00:22:35.003Z,92.20
2019-04-06T00:25:04.464Z,92.20
2019-04-06T00:27:33.073Z,92.20
2019-04-06T00:30:01.663Z,92.20
2019-04-06T00:32:31.876Z,92.20
2019-04-06T00:35:00.460Z,92.20
2019-04-06T00:37:29.046Z,92.20
2019-04-06T00:39:57.646Z,92.20
2019-04-06T00:42:26.237Z,92.20
2019-04-06T00:44:54.836Z,92.10
2019-04-06T00:47:23.443Z,92.10
2019-04-06T00:49:52.062Z,92.20
2019-04-06T00:52:20.665Z,92.30
2019-04-06T00:54:49.243Z,92.20
2019-04-06T00:57:19.414Z,92.20
2019-04-06T00:59:48.011Z,92.20
2019-04-06T01:02:16.570Z,92.20
2019-04-06T01:04:45.162Z,92.20
2019-04-06T01:07:13.780Z,92.20
2019-04-06T01:09:42.368Z,92.30
2019-04-06T01:12:11.033Z,92.40
2019-04-06T01:14:39.623Z,92.40
2019-04-06T01:17:08.204Z,92.40
2019-04-06T01:19:36.805Z,92.40
2019-04-06T01:22:05.461Z,92.40
2019-04-06T01:24:34.065Z,92.50
2019-04-06T01:27:02.672Z,92.50
2019-04-06T01:29:31.258Z,92.60
2019-04-06T01:31:59.848Z,92.60
2019-04-06T01:34:28.446Z,92.80
2019-04-06T01:36:57.046Z,93.00
2019-04-06T01:39:25.651Z,93.00
2019-04-06T01:41:54.249Z,93.20
2019-04-06T01:44:24.365Z,93.30
2019-04-06T01:46:52.949Z,93.50
2019-04-06T01:49:21.553Z,93.60
2019-04-06T01:51:50.137Z,93.50
2019-04-06T01:54:18.774Z,93.50
2019-04-06T01:56:47.371Z,93.40
2019-04-06T01:59:15.975Z,93.40
2019-04-06T02:01:52.186Z,93.60
2019-04-06T02:04:20.779Z,93.60
2019-04-06T02:06:49.386Z,93.60
2019-04-06T02:09:18.879Z,93.70
2019-04-06T02:11:47.468Z,93.70
2019-04-06T02:14:16.120Z,93.60
2019-04-06T02:16:44.637Z,93.80
2019-04-06T02:19:13.219Z,93.70
2019-04-06T02:21:41.783Z,93.70
2019-04-06T02:24:10.352Z,93.70
2019-04-06T02:26:38.925Z,93.70
2019-04-06T02:29:07.488Z,93.60
2019-04-06T02:31:37.699Z,93.50
2019-04-06T02:34:13.963Z,93.60
2019-04-06T02:36:44.128Z,93.70
2019-04-06T02:39:30.762Z,93.70
2019-04-06T02:42:05.091Z,93.80
2019-04-06T02:44:33.732Z,93.60
2019-04-06T02:47:02.235Z,93.70
2019-04-06T02:49:30.811Z,93.80
2019-04-06T02:51:59.384Z,93.80
2019-04-06T02:54:27.957Z,93.80
2019-04-06T02:56:56.539Z,93.80
2019-04-06T02:59:25.177Z,93.80
2019-04-06T03:01:53.760Z,93.90
2019-04-06T03:04:22.390Z,93.90
2019-04-06T03:06:51.239Z,93.80
2019-04-06T03:09:19.930Z,93.90
2019-04-06T03:11:48.540Z,93.80
2019-04-06T03:14:17.232Z,93.80
2019-04-06T03:16:45.798Z,93.80
2019-04-06T03:19:14.377Z,93.80
2019-04-06T03:21:42.940Z,93.90
2019-04-06T03:24:11.527Z,93.80
2019-04-06T03:26:43.955Z,93.70
2019-04-06T03:29:12.523Z,93.90
2019-04-06T03:31:41.111Z,93.80
2019-04-06T03:34:09.823Z,93.80
2019-04-06T03:36:38.532Z,93.90
2019-04-06T03:39:08.107Z,93.90
2019-04-06T03:41:36.828Z,93.80
2019-04-06T03:44:05.408Z,93.90
2019-04-06T03:46:33.969Z,93.90
2019-04-06T03:49:02.555Z,93.90
2019-04-06T03:51:31.083Z,93.80
2019-04-06T03:53:59.564Z,93.80
2019-04-06T03:56:28.130Z,93.90
2019-04-06T03:58:56.708Z,93.90
2019-04-06T04:01:25.250Z,93.80
2019-04-06T04:03:53.746Z,93.80
2019-04-06T04:06:22.187Z,93.80
2019-04-06T04:08:50.630Z,93.90
2019-04-06T04:11:19.097Z,94.00
2019-04-06T04:13:47.536Z,93.80
2019-04-06T04:16:15.981Z,93.80
2019-04-06T04:18:44.561Z,93.80
2019-04-06T04:21:14.064Z,93.80
2019-04-06T04:23:43.129Z,93.70
2019-04-06T04:26:11.690Z,93.80
2019-04-06T04:28:59.476Z,93.80
2019-04-06T04:31:27.911Z,93.80
2019-04-06T04:33:56.378Z,93.80
2019-04-06T04:36:24.883Z,93.90
2019-04-06T04:38:53.658Z,93.90
2019-04-06T04:41:22.335Z,93.90
2019-04-06T04:43:50.874Z,93.90
2019-04-06T04:46:19.328Z,93.90
2019-04-06T04:48:47.830Z,93.90
2019-04-06T04:51:16.276Z,93.90
2019-04-06T04:53:44.833Z,93.90
2019-04-06T04:56:13.269Z,94.10
2019-04-06T04:58:41.795Z,93.80
2019-04-06T05:01:12.785Z,93.90
2019-04-06T05:03:41.359Z,93.90
2019-04-06T05:06:09.804Z,94.00
2019-04-06T05:08:44.377Z,93.90
2019-04-06T05:11:12.828Z,93.90
2019-04-06T05:13:42.914Z,94.00
2019-04-06T05:16:14.669Z,94.00
2019-04-06T05:18:43.615Z,94.00
2019-04-06T05:21:12.914Z,94.00
2019-04-06T05:23:41.523Z,94.00
2019-04-06T05:26:09.971Z,94.10
2019-04-06T05:28:38.417Z,94.10
2019-04-06T05:31:06.931Z,94.10
2019-04-06T05:33:35.389Z,94.10
2019-04-06T05:36:04.350Z,94.10
2019-04-06T05:38:34.240Z,94.10
2019-04-06T05:41:04.939Z,94.10
2019-04-06T05:43:33.386Z,94.10
2019-04-06T05:46:02.393Z,94.00
2019-04-06T05:48:31.050Z,94.00
2019-04-06T05:51:02.706Z,94.00
2019-04-06T05:53:31.192Z,94.00
2019-04-06T05:55:59.633Z,94.00
2019-04-06T05:58:28.237Z,94.00
2019-04-06T06:00:56.848Z,94.00
2019-04-06T06:03:25.416Z,93.90
2019-04-06T06:05:53.872Z,94.00
2019-04-06T06:08:22.395Z,94.00
2019-04-06T06:10:52.473Z,93.90
2019-04-06T06:13:20.924Z,94.00
2019-04-06T06:15:49.958Z,93.90
2019-04-06T06:18:26.556Z,94.00
2019-04-06T06:20:48.714Z,94.00
2019-04-06T06:23:17.200Z,94.00
2019-04-06T06:25:45.852Z,94.10
2019-04-06T06:28:16.802Z,94.10
2019-04-06T06:30:45.504Z,94.10
2019-04-06T06:33:13.942Z,94.20
2019-04-06T06:35:42.397Z,94.10
2019-04-06T06:38:13.442Z,94.10
2019-04-06T06:40:41.973Z,94.10
2019-04-06T06:43:10.428Z,94.00
2019-04-06T06:45:39.068Z,94.00
2019-04-06T06:48:07.641Z,94.00
2019-04-06T06:50:36.146Z,94.00
2019-04-06T06:53:05.552Z,93.90
2019-04-06T06:55:36.151Z,93.90
2019-04-06T06:58:04.607Z,94.00
2019-04-06T07:00:33.067Z,93.90
2019-04-06T07:03:01.508Z,94.10
2019-04-06T07:05:29.968Z,94.10
2019-04-06T07:07:58.435Z,94.00
2019-04-06T07:10:27.155Z,94.00
2019-04-06T07:12:55.761Z,93.90
2019-04-06T07:15:24.215Z,93.90
2019-04-06T07:17:52.646Z,93.80
2019-04-06T07:20:21.148Z,93.80
2019-04-06T07:22:49.757Z,93.90
2019-04-06T07:25:18.294Z,93.80
2019-04-06T07:27:46.864Z,93.70
2019-04-06T07:30:15.758Z,93.70
2019-04-06T07:32:44.194Z,93.70
2019-04-06T07:35:13.014Z,93.80
2019-04-06T07:37:41.552Z,93.70
2019-04-06T07:40:11.366Z,93.60
2019-04-06T07:42:39.823Z,93.40
2019-04-06T07:45:08.727Z,93.50
2019-04-06T07:47:37.239Z,93.30
2019-04-06T07:50:07.044Z,93.30
2019-04-06T07:52:38.456Z,93.30
2019-04-06T07:55:08.058Z,93.10
2019-04-06T07:57:36.563Z,93.10
2019-04-06T08:00:08.747Z,92.90
2019-04-06T08:02:37.223Z,93.00
2019-04-06T08:05:06.523Z,92.80
2019-04-06T08:07:34.967Z,92.60
2019-04-06T08:10:03.587Z,92.60
2019-04-06T08:12:32.159Z,92.40
2019-04-06T08:15:00.670Z,92.50
2019-04-06T08:17:29.111Z,92.40
2019-04-06T08:19:57.560Z,92.40
2019-04-06T08:22:26.006Z,91.70
2019-04-06T08:24:54.690Z,91.80
2019-04-06T08:27:29.193Z,92.30
2019-04-06T08:29:57.792Z,91.90
2019-04-06T08:32:26.597Z,92.00
2019-04-06T08:34:55.034Z,91.60
2019-04-06T08:37:23.499Z,91.80
2019-04-06T08:39:52.095Z,91.50
2019-04-06T08:42:20.583Z,91.70
2019-04-06T08:44:49.500Z,91.50
2019-04-06T08:47:17.938Z,91.00
2019-04-06T08:49:46.399Z,91.40
2019-04-06T08:52:14.848Z,91.30
2019-04-06T08:54:43.314Z,90.60
2019-04-06T08:57:11.824Z,91.30
2019-04-06T08:59:40.325Z,91.00
2019-04-06T09:02:08.838Z,90.90
2019-04-06T09:04:37.281Z,90.80
2019-04-06T09:07:06.170Z,90.70
2019-04-06T09:09:34.731Z,90.60
2019-04-06T09:12:03.189Z,90.60
2019-04-06T09:14:31.656Z,90.60
2019-04-06T09:17:00.370Z,90.50
2019-04-06T09:19:29.039Z,90.50
2019-04-06T09:21:57.485Z,90.40
2019-04-06T09:24:26.013Z,89.90
2019-04-06T09:26:54.463Z,90.10
2019-04-06T09:29:24.447Z,90.10
2019-04-06T09:31:53.098Z,89.80
2019-04-06T09:34:21.540Z,89.60
2019-04-06T09:36:50.097Z,89.20
2019-04-06T09:39:18.547Z,88.90
2019-04-06T09:41:47.013Z,90.10
2019-04-06T09:44:18.107Z,88.40
2019-04-06T09:47:06.332Z,87.90
2019-04-06T09:49:45.295Z,86.40
2019-04-06T09:52:31.571Z,86.60
2019-04-06T09:55:13.549Z,87.00
2019-04-06T09:57:49.218Z,87.70
2019-04-06T10:00:35.906Z,84.80
2019-04-06T10:03:17.864Z,84.00
2019-04-06T10:05:55.147Z,85.50
2019-04-06T10:08:25.581Z,85.40
2019-04-06T10:10:55.879Z,83.90
2019-04-06T10:13:26.006Z,82.20
2019-04-06T10:15:56.093Z,83.30
2019-04-06T10:18:26.192Z,82.10
2019-04-06T10:20:58.521Z,78.30
2019-04-06T10:23:43.898Z,78.10
2019-04-06T10:26:13.549Z,76.90
2019-04-06T10:28:49.297Z,75.10
2019-04-06T10:31:21.879Z,75.60
2019-04-06T10:34:03.735Z,76.40
2019-04-06T10:36:45.572Z,75.50
2019-04-06T10:39:15.730Z,76.30
2019-04-06T10:41:49.400Z,75.20
2019-04-06T10:44:35.736Z,74.90
2019-04-06T10:47:11.698Z,74.60
2019-04-06T10:49:44.407Z,75.80
2019-04-06T10:52:32.699Z,75.40
2019-04-06T10:55:02.850Z,75.40
2019-04-06T10:57:49.309Z,73.60
2019-04-06T11:00:19.834Z,73.70
2019-04-06T11:02:52.587Z,74.50
2019-04-06T11:05:39.055Z,74.20
2019-04-06T11:08:18.814Z,74.80
2019-04-06T11:10:48.998Z,74.60
2019-04-06T11:13:30.977Z,74.60
2019-04-06T11:16:09.657Z,74.40
2019-04-06T11:18:45.646Z,75.60
2019-04-06T11:21:31.934Z,75.40
2019-04-06T11:24:10.857Z,75.10
2019-04-06T11:26:46.575Z,75.70
2019-04-06T11:29:16.672Z,75.20
2019-04-06T11:31:52.431Z,74.80
2019-04-06T11:34:31.731Z,74.60
2019-04-06T11:37:14.042Z,75.10
2019-04-06T11:39:47.074Z,74.10
2019-04-06T11:42:20.232Z,73.50
2019-04-06T11:45:05.323Z,73.80
2019-04-06T11:47:35.427Z,73.30
2019-04-06T11:50:06.961Z,72.70
2019-04-06T11:52:46.155Z,70.90
2019-04-06T11:55:32.599Z,70.20
2019-04-06T11:58:02.683Z,70.40
2019-04-06T12:00:32.827Z,71.10
2019-04-06T12:03:02.913Z,70.70
2019-04-06T12:05:51.487Z,70.40
2019-04-06T12:08:31.902Z,70.10
2019-04-06T12:11:14.201Z,69.40
2019-04-06T12:13:47.538Z,68.60
2019-04-06T12:16:40.342Z,66.60
2019-04-06T12:19:25.309Z,66.50
2019-04-06T12:22:00.853Z,67.20
2019-04-06T12:24:31.195Z,67.70
2019-04-06T12:27:13.307Z,66.40
2019-04-06T12:29:49.082Z,65.70
2019-04-06T12:32:31.232Z,65.80
2019-04-06T12:35:10.139Z,66.20
2019-04-06T12:37:56.309Z,66.50
2019-04-06T12:40:29.025Z,66.00
2019-04-06T12:42:59.120Z,66.10
2019-04-06T12:45:34.948Z,66.80
2019-04-06T12:48:14.058Z,65.00
2019-04-06T12:50:49.971Z,65.90
2019-04-06T12:53:29.012Z,66.30
2019-04-06T12:56:01.779Z,65.90
2019-04-06T12:58:37.749Z,66.70
2019-04-06T13:01:22.896Z,67.50
2019-04-06T13:04:09.306Z,65.40
2019-04-06T13:06:39.397Z,66.60
2019-04-06T13:09:12.319Z,67.00
2019-04-06T13:11:58.610Z,66.60
2019-04-06T13:14:28.687Z,68.10
2019-04-06T13:17:30.143Z,67.60
2019-04-06T13:20:18.489Z,68.60
2019-04-06T13:23:02.131Z,68.70
2019-04-06T13:25:38.636Z,69.30
2019-04-06T13:28:08.729Z,69.30
2019-04-06T13:30:38.840Z,69.20
2019-04-06T13:33:18.223Z,69.60
2019-04-06T13:35:51.002Z,69.30
2019-04-06T13:38:27.725Z,69.80
2019-04-06T13:41:12.894Z,69.40
2019-04-06T13:43:43.278Z,68.80
2019-04-06T13:46:29.826Z,69.30
2019-04-06T13:49:14.867Z,69.20
2019-04-06T13:51:51.570Z,68.70
2019-04-06T13:54:27.882Z,68.50
2019-04-06T13:56:58.104Z,68.50
2019-04-06T13:59:28.187Z,68.20
2019-04-06T14:02:14.700Z,68.90
2019-04-06T14:04:45.351Z,69.00
2019-04-06T14:07:21.360Z,68.80
2019-04-06T14:09:54.524Z,68.50
2019-04-06T14:12:41.017Z,69.30
2019-04-06T14:15:27.251Z,68.90
2019-04-06T14:18:13.627Z,68.60
2019-04-06T14:20:52.626Z,68.90
2019-04-06T14:23:28.810Z,69.50
2019-04-06T14:26:01.434Z,69.40
2019-04-06T14:28:32.464Z,69.80
2019-04-06T14:31:07.714Z,70.00
2019-04-06T14:33:40.776Z,70.20
2019-04-06T14:36:27.396Z,70.60
2019-04-06T14:38:57.588Z,69.70
2019-04-06T14:41:36.490Z,69.80
2019-04-06T14:44:06.655Z,71.20
2019-04-06T14:46:55.236Z,69.90
2019-04-06T14:49:41.626Z,69.90
2019-04-06T14:52:28.265Z,69.90
2019-04-06T14:55:04.621Z,69.90
2019-04-06T14:57:44.383Z,69.30
2019-04-06T15:00:20.832Z,69.50
2019-04-06T15:03:03.112Z,69.60
2019-04-06T15:05:51.876Z,69.30
2019-04-06T15:08:24.095Z,68.40
2019-04-06T15:11:06.186Z,68.20
2019-04-06T15:13:41.282Z,68.40
2019-04-06T15:16:11.370Z,67.40
2019-04-06T15:18:50.154Z,68.00
2019-04-06T15:21:20.285Z,68.40
2019-04-06T15:24:02.517Z,68.40
2019-04-06T15:26:32.706Z,68.00
2019-04-06T15:29:19.720Z,68.50
2019-04-06T15:31:59.804Z,68.70
2019-04-06T15:34:29.902Z,68.80
2019-04-06T15:37:16.030Z,69.20
2019-04-06T15:39:46.106Z,69.10
2019-04-06T15:42:22.062Z,68.40
2019-04-06T15:45:04.189Z,68.50
2019-04-06T15:47:36.941Z,68.40
2019-04-06T15:52:53.519Z,69.30
2019-04-06T15:55:29.434Z,69.20
2019-04-06T15:58:05.296Z,68.90
2019-04-06T16:00:50.601Z,68.90
2019-04-06T16:03:23.596Z,68.70
2019-04-06T16:06:11.623Z,68.40
2019-04-06T16:08:47.373Z,68.50
2019-04-06T16:11:19.921Z,68.60
2019-04-06T16:13:55.838Z,68.70
2019-04-06T16:16:28.814Z,68.30
2019-04-06T16:19:08.137Z,68.30
2019-04-06T16:21:50.570Z,68.70
2019-04-06T16:24:21.918Z,68.60
2019-04-06T16:27:09.697Z,68.40
2019-04-06T16:29:52.195Z,68.00
2019-04-06T16:32:33.254Z,68.00
2019-04-06T16:35:05.742Z,67.60
2019-04-06T16:37:51.437Z,67.70
2019-04-06T16:40:21.598Z,68.00
2019-04-06T16:43:04.092Z,68.10
2019-04-06T16:45:40.913Z,68.20
2019-04-06T16:48:23.087Z,68.10
2019-04-06T16:51:09.470Z,68.10
2019-04-06T16:53:39.633Z,68.20
2019-04-06T16:56:24.599Z,68.20
2019-04-06T16:59:01.056Z,68.30
2019-04-06T17:01:31.252Z,68.40
2019-04-06T17:04:01.351Z,68.00
2019-04-06T17:06:34.079Z,68.30
2019-04-06T17:09:16.478Z,68.30
2019-04-06T17:11:46.730Z,68.40
2019-04-06T17:14:33.369Z,68.60
2019-04-06T17:17:06.327Z,68.70
2019-04-06T17:19:54.323Z,68.90
2019-04-06T17:22:24.557Z,69.00
2019-04-06T17:25:10.848Z,69.00
2019-04-06T17:27:57.419Z,69.50
2019-04-06T17:30:27.504Z,69.80
2019-04-06T17:33:00.423Z,70.30
2019-04-06T17:35:36.595Z,70.60
2019-04-06T17:38:06.677Z,70.80
2019-04-06T17:40:45.588Z,71.20
2019-04-06T17:43:15.748Z,71.40
2019-04-06T17:46:02.341Z,71.60
2019-04-06T17:48:48.818Z,72.00
2019-04-06T17:51:19.095Z,72.30
2019-04-06T17:53:53.829Z,72.50
2019-04-06T17:56:23.906Z,72.70
2019-04-06T17:59:02.976Z,73.00
2019-04-06T18:01:42.301Z,73.20
2019-04-06T18:04:13.107Z,73.60
2019-04-06T18:06:48.775Z,73.90
2019-04-06T18:09:24.738Z,74.30
2019-04-06T18:11:57.675Z,74.80
2019-04-06T18:14:26.262Z,75.20
2019-04-06T18:16:55.454Z,75.70
2019-04-06T18:19:24.039Z,75.80
2019-04-06T18:21:52.845Z,76.20
2019-04-06T18:24:21.441Z,76.30
2019-04-06T18:26:49.932Z,76.70
2019-04-06T18:29:18.459Z,76.90
2019-04-06T18:31:49.050Z,77.40
2019-04-06T18:34:18.330Z,77.60
2019-04-06T18:36:51.270Z,78.00
2019-04-06T18:39:22.959Z,78.20
2019-04-06T18:41:59.898Z,78.30
2019-04-06T18:44:28.371Z,78.70
2019-04-06T18:46:57.260Z,79.00
2019-04-06T18:49:26.033Z,79.30
2019-04-06T18:51:54.582Z,79.50
2019-04-06T18:54:23.182Z,80.30
2019-04-06T18:56:51.759Z,80.10
2019-04-06T18:59:20.625Z,80.60
2019-04-06T19:01:49.577Z,80.20
2019-04-06T19:04:18.086Z,80.90
2019-04-06T19:06:46.654Z,81.20
2019-04-06T19:09:22.871Z,81.60
2019-04-06T19:11:54.400Z,81.90
2019-04-06T19:14:15.917Z,82.10
2019-04-06T19:16:45.958Z,82.30
2019-04-06T19:19:14.426Z,82.50
2019-04-06T19:21:43.237Z,82.70
2019-04-06T19:24:12.195Z,82.90
2019-04-06T19:27:00.086Z,83.30
2019-04-06T19:29:29.298Z,83.40
2019-04-06T19:31:58.764Z,83.60
2019-04-06T19:34:27.427Z,83.80
2019-04-06T19:36:55.865Z,84.60
2019-04-06T19:39:26.357Z,84.40
2019-04-06T19:41:54.944Z,84.40
2019-04-06T19:44:23.458Z,84.40
2019-04-06T19:46:54.840Z,84.70
2019-04-06T19:49:23.383Z,84.90
2019-04-06T19:51:52.212Z,85.10
2019-04-06T19:54:21.370Z,85.40
2019-04-06T19:56:49.914Z,85.80
2019-04-06T19:59:18.639Z,86.10
2019-04-06T20:01:47.295Z,86.30
2019-04-06T20:04:16.082Z,86.40
2019-04-06T20:06:44.661Z,86.70
2019-04-06T20:09:13.451Z,86.90
2019-04-06T20:11:42.179Z,87.10
2019-04-06T20:14:12.351Z,87.50
2019-04-06T20:16:40.840Z,88.10
2019-04-06T20:19:09.892Z,88.10
2019-04-06T20:21:41.119Z,88.10
2019-04-06T20:24:09.674Z,87.90
2019-04-06T20:26:38.767Z,88.10
2019-04-06T20:29:07.215Z,88.30
2019-04-06T20:31:37.123Z,88.60
2019-04-06T20:34:06.178Z,88.80
2019-04-06T20:36:35.166Z,89.10
2019-04-06T20:39:06.036Z,89.20
2019-04-06T20:41:34.485Z,89.40
2019-04-06T20:44:02.997Z,89.60
2019-04-06T20:46:31.887Z,89.70
2019-04-06T20:49:01.091Z,89.90
2019-04-06T20:51:30.036Z,89.90
2019-04-06T20:53:58.702Z,90.00
2019-04-06T20:56:29.920Z,90.10
2019-04-06T20:58:58.662Z,90.10
2019-04-06T21:01:27.666Z,90.20
2019-04-06T21:04:01.029Z,90.30
2019-04-06T21:06:26.867Z,90.30
2019-04-06T21:08:55.422Z,90.40
2019-04-06T21:11:24.434Z,90.40
2019-04-06T21:13:53.039Z,90.50
2019-04-06T21:16:22.963Z,90.40
2019-04-06T21:18:51.408Z,90.50
2019-04-06T21:21:22.302Z,90.50
2019-04-06T21:23:52.903Z,90.50
2019-04-06T21:26:21.570Z,90.50
2019-04-06T21:28:53.392Z,90.50
2019-04-06T21:31:23.534Z,90.50
2019-04-06T21:33:52.531Z,90.60
2019-04-06T21:36:22.047Z,90.50
2019-04-06T21:38:50.473Z,90.60
2019-04-06T21:41:19.468Z,90.70
2019-04-06T21:43:48.067Z,90.70
2019-04-06T21:46:19.279Z,90.70
2019-04-06T21:48:48.042Z,90.70
2019-04-06T21:51:16.787Z,90.80
2019-04-06T21:53:45.267Z,90.70
2019-04-06T21:56:15.636Z,90.80
2019-04-06T21:58:44.694Z,90.70
2019-04-06T22:01:15.376Z,90.60
2019-04-06T22:03:43.955Z,90.60
2019-04-06T22:06:14.054Z,90.70
2019-04-06T22:08:42.528Z,90.50
2019-04-06T22:11:10.988Z,90.60
2019-04-06T22:13:39.427Z,90.70
2019-04-06T22:16:08.487Z,90.70
2019-04-06T22:18:37.927Z,90.70
2019-04-06T22:21:06.917Z,90.70
2019-04-06T22:23:42.318Z,90.60
2019-04-06T22:26:06.043Z,90.80
2019-04-06T22:28:35.051Z,90.80
2019-04-06T22:31:05.445Z,90.90
2019-04-06T22:33:34.373Z,91.10
2019-04-06T22:36:03.278Z,91.20
2019-04-06T22:38:31.928Z,91.30
2019-04-06T22:41:03.589Z,91.30
2019-04-06T22:43:32.018Z,91.50
2019-04-06T22:46:00.936Z,91.20
2019-04-06T22:48:31.729Z,91.30
2019-04-06T22:51:00.229Z,91.50
2019-04-06T22:53:29.285Z,91.40
2019-04-06T22:55:58.513Z,91.50
2019-04-06T22:58:28.873Z,91.30
2019-04-06T23:00:59.100Z,91.20
2019-04-06T23:03:45.598Z,91.20
2019-04-06T23:06:32.496Z,91.30
2019-04-06T23:09:00.960Z,91.20
2019-04-06T23:11:29.860Z,91.40
2019-04-06T23:13:59.959Z,91.80
2019-04-06T23:16:28.647Z,91.60
2019-04-06T23:18:57.260Z,91.90
2019-04-06T23:21:25.907Z,91.50
2019-04-06T23:23:54.452Z,91.50
2019-04-06T23:26:22.893Z,91.50
2019-04-06T23:28:52.883Z,91.50
2019-04-06T23:31:21.330Z,91.50
2019-04-06T23:33:49.783Z,91.50
2019-04-06T23:36:18.229Z,91.40
2019-04-06T23:38:46.675Z,91.30
2019-04-06T23:41:15.135Z,91.20
2019-04-06T23:43:43.850Z,91.20
2019-04-06T23:46:12.988Z,91.20
2019-04-06T23:48:41.790Z,91.30
2019-04-06T23:51:10.688Z,91.20
2019-04-06T23:53:40.942Z,91.30
2019-04-06T23:56:09.450Z,91.20
2019-04-06T23:58:38.007Z,91.20
